PWSweather.com
Personal Weather Stations
Station Observations
FAUSKE
Nordland, Norway, FauskeNO 8200

Nordland, NorwayFauskeNO 8200

Lat: 67.2607586, Lon: 15.4114204

Elevation: 40

Station Type: Davis Vantage PRO2

http://www.bjornli.net/weather.html

High Low Average
Temperature 45.9°F7.7°C 35.2°F1.8°C 40.0°F4.4°C
Dew Point 42.2°F5.7°C 33.7°F0.9°C 37.6°F3.1°C
Winds 6.0 mph 9.7 kmh Calm Calm Calm SECalm SE
Wind Gusts 16.0 mph25.7 kmh -- 2.0 mph3.2 kmh
Humidity 96% 79% 91%
Pressure 30.02 in1016.6 mb 29.97 in1014.9 mb -
Precipitation 0.00 in0.0 mm - -
Hour Temp Dew Point Humidity Winds Wind Gusts Pressure Precip Precip Rate Daily Precip Total
12:00 AM 36.9°F2.7°C 35.6°F2.0°C 95% Calm Calm -- 29.99 in1015.6 mb 0.00 in0.0 mm 0.00 in0.0 mm 0.00 in0.0 mm
12:10 AM 37.1°F2.8°C 35.8°F2.1°C 95% Calm Calm -- 29.99 in1015.6 mb 0.00 in0.0 mm 0.00 in0.0 mm 0.00 in0.0 mm
12:30 AM 37.4°F3.0°C 36.1°F2.3°C 95% Calm Calm -- 30.00 in1015.9 mb 0.00 in0.0 mm 0.00 in0.0 mm 0.00 in0.0 mm
12:40 AM 37.4°F3.0°C 35.8°F2.1°C 94% Calm Calm 5.0 mph8.0 kmh 30.00 in1015.9 mb 0.00 in0.0 mm 0.00 in0.0 mm 0.00 in0.0 mm
01:00 AM 36.3°F2.4°C 34.5°F1.4°C 93% Calm Calm -- 30.00 in1015.9 mb 0.00 in0.0 mm 0.00 in0.0 mm 0.00 in0.0 mm
01:10 AM 36.2°F2.3°C 34.4°F1.3°C 93% Calm Calm 6.0 mph9.7 kmh 30.00 in1015.9 mb 0.00 in0.0 mm 0.00 in0.0 mm 0.00 in0.0 mm
01:30 AM 36.4°F2.4°C 34.6°F1.4°C 93% Calm Calm -- 30.00 in1015.9 mb 0.00 in0.0 mm 0.00 in0.0 mm 0.00 in0.0 mm
01:40 AM 36.4°F2.4°C 34.6°F1.4°C 93% Calm Calm -- 30.00 in1015.9 mb 0.00 in0.0 mm 0.00 in0.0 mm 0.00 in0.0 mm
02:00 AM 36.5°F2.5°C 34.7°F1.5°C 93% Calm Calm -- 30.00 in1015.9 mb 0.00 in0.0 mm 0.00 in0.0 mm 0.00 in0.0 mm
02:10 AM 36.2°F2.3°C 34.4°F1.3°C 93% Calm Calm -- 30.01 in1016.3 mb 0.00 in0.0 mm 0.00 in0.0 mm 0.00 in0.0 mm
02:30 AM 36.4°F2.4°C 34.6°F1.4°C 93% Calm Calm -- 30.01 in1016.3 mb 0.00 in0.0 mm 0.00 in0.0 mm 0.00 in0.0 mm
02:40 AM 36.7°F2.6°C 34.9°F1.6°C 93% 2.0 mph NW3.2 kmh NW 2.0 mph3.2 kmh 30.01 in1016.3 mb 0.00 in0.0 mm 0.00 in0.0 mm 0.00 in0.0 mm
03:00 AM 37.1°F2.8°C 35.3°F1.8°C 93% Calm Calm -- 30.01 in1016.3 mb 0.00 in0.0 mm 0.00 in0.0 mm 0.00 in0.0 mm
03:10 AM 37.3°F2.9°C 35.5°F1.9°C 93% Calm Calm -- 30.01 in1016.3 mb 0.01 in0.3 mm 0.06 in1.5 mm 0.01 in0.3 mm
03:30 AM 37.4°F3.0°C 35.6°F2.0°C 93% Calm Calm -- 30.01 in1016.3 mb 0.03 in0.8 mm 0.06 in1.5 mm 0.03 in0.8 mm
03:40 AM 37.3°F2.9°C 35.5°F1.9°C 93% Calm Calm -- 30.01 in1016.3 mb 0.04 in1.0 mm 0.06 in1.5 mm 0.04 in1.0 mm
04:00 AM 37.1°F2.8°C 35.3°F1.8°C 93% Calm Calm -- 30.01 in1016.3 mb 0.04 in1.0 mm 0.00 in0.0 mm 0.04 in1.0 mm
04:10 AM 36.7°F2.6°C 35.1°F1.7°C 94% Calm Calm -- 30.01 in1016.3 mb 0.04 in1.0 mm 0.00 in0.0 mm 0.04 in1.0 mm
04:30 AM 36.0°F2.2°C 34.4°F1.3°C 94% Calm Calm -- 30.00 in1015.9 mb 0.02 in0.5 mm 0.00 in0.0 mm 0.04 in1.0 mm
04:40 AM 35.6°F2.0°C 34.1°F1.2°C 94% Calm Calm -- 30.01 in1016.3 mb 0.02 in0.5 mm 0.00 in0.0 mm 0.04 in1.0 mm
05:00 AM 35.2°F1.8°C 33.7°F0.9°C 94% Calm Calm -- 30.01 in1016.3 mb 0.01 in0.3 mm 0.00 in0.0 mm 0.04 in1.0 mm
05:10 AM 35.6°F2.0°C 34.1°F1.2°C 94% Calm Calm -- 30.01 in1016.3 mb 0.01 in0.3 mm 0.00 in0.0 mm 0.04 in1.0 mm
05:30 AM 36.0°F2.2°C 34.7°F1.5°C 95% Calm Calm -- 30.00 in1015.9 mb 0.00 in0.0 mm 0.00 in0.0 mm 0.04 in1.0 mm
05:40 AM 36.1°F2.3°C 34.8°F1.6°C 95% Calm Calm -- 30.00 in1015.9 mb 0.00 in0.0 mm 0.00 in0.0 mm 0.04 in1.0 mm
06:00 AM 36.5°F2.5°C 35.2°F1.8°C 95% Calm Calm -- 30.00 in1015.9 mb 0.01 in0.3 mm 0.02 in0.5 mm 0.05 in1.3 mm
06:10 AM 36.8°F2.7°C 35.5°F1.9°C 95% Calm Calm -- 30.00 in1015.9 mb 0.01 in0.3 mm 0.00 in0.0 mm 0.05 in1.3 mm
06:30 AM 37.3°F2.9°C 36.0°F2.2°C 95% Calm Calm -- 30.00 in1015.9 mb 0.01 in0.3 mm 0.00 in0.0 mm 0.05 in1.3 mm
06:40 AM 37.4°F3.0°C 36.1°F2.3°C 95% Calm Calm -- 30.00 in1015.9 mb 0.01 in0.3 mm 0.00 in0.0 mm 0.05 in1.3 mm
07:00 AM 37.9°F3.3°C 36.9°F2.7°C 96% Calm Calm -- 30.00 in1015.9 mb 0.00 in0.0 mm 0.00 in0.0 mm 0.05 in1.3 mm
07:10 AM 38.2°F3.4°C 36.9°F2.7°C 95% Calm Calm -- 30.00 in1015.9 mb 0.00 in0.0 mm 0.00 in0.0 mm 0.05 in1.3 mm
07:30 AM 38.3°F3.5°C 37.3°F2.9°C 96% Calm Calm -- 30.00 in1015.9 mb 0.00 in0.0 mm 0.00 in0.0 mm 0.05 in1.3 mm
07:40 AM 38.8°F3.8°C 37.8°F3.2°C 96% Calm Calm -- 30.00 in1015.9 mb 0.00 in0.0 mm 0.00 in0.0 mm 0.05 in1.3 mm
08:00 AM 39.9°F4.4°C 38.9°F3.8°C 96% Calm Calm -- 30.00 in1015.9 mb 0.00 in0.0 mm 0.00 in0.0 mm 0.05 in1.3 mm
08:10 AM 40.0°F4.4°C 39.0°F3.9°C 96% Calm Calm -- 30.00 in1015.9 mb 0.00 in0.0 mm 0.00 in0.0 mm 0.05 in1.3 mm
08:30 AM 40.6°F4.8°C 39.6°F4.2°C 96% Calm Calm -- 30.00 in1015.9 mb 0.00 in0.0 mm 0.00 in0.0 mm 0.05 in1.3 mm
08:40 AM 40.9°F4.9°C 39.6°F4.2°C 95% Calm Calm -- 30.01 in1016.3 mb 0.00 in0.0 mm 0.00 in0.0 mm 0.05 in1.3 mm
09:00 AM 42.6°F5.9°C 41.0°F5.0°C 94% Calm Calm -- 30.01 in1016.3 mb 0.00 in0.0 mm 0.00 in0.0 mm 0.05 in1.3 mm
09:10 AM 42.0°F5.6°C 40.1°F4.5°C 93% Calm Calm -- 30.01 in1016.3 mb 0.01 in0.3 mm 0.06 in1.5 mm 0.06 in1.5 mm
09:30 AM 41.4°F5.2°C 39.8°F4.3°C 94% Calm Calm -- 30.01 in1016.3 mb 0.02 in0.5 mm 0.03 in0.8 mm 0.07 in1.8 mm
09:40 AM 42.9°F6.1°C 41.3°F5.2°C 94% Calm Calm -- 30.01 in1016.3 mb 0.02 in0.5 mm 0.00 in0.0 mm 0.07 in1.8 mm
10:00 AM 44.7°F7.1°C 42.2°F5.7°C 91% 3.0 mph E4.8 kmh E 3.0 mph4.8 kmh 30.01 in1016.3 mb 0.02 in0.5 mm 0.00 in0.0 mm 0.07 in1.8 mm
10:10 AM 43.8°F6.6°C 40.8°F4.9°C 89% Calm Calm 5.0 mph8.0 kmh 30.01 in1016.3 mb 0.02 in0.5 mm 0.00 in0.0 mm 0.07 in1.8 mm
10:30 AM 43.5°F6.4°C 40.5°F4.7°C 89% Calm Calm -- 30.01 in1016.3 mb 0.00 in0.0 mm 0.00 in0.0 mm 0.07 in1.8 mm
10:40 AM 44.6°F7.0°C 41.6°F5.3°C 89% 2.0 mph E3.2 kmh E 3.0 mph4.8 kmh 30.01 in1016.3 mb 0.00 in0.0 mm 0.00 in0.0 mm 0.07 in1.8 mm
11:00 AM 44.6°F7.0°C 41.0°F5.0°C 87% Calm Calm -- 30.01 in1016.3 mb 0.00 in0.0 mm 0.00 in0.0 mm 0.07 in1.8 mm
11:10 AM 43.8°F6.6°C 39.9°F4.4°C 86% Calm Calm 5.0 mph8.0 kmh 30.02 in1016.6 mb 0.00 in0.0 mm 0.00 in0.0 mm 0.07 in1.8 mm
11:30 AM 43.6°F6.4°C 40.3°F4.6°C 88% 6.0 mph NE9.7 kmh NE 9.0 mph14.5 kmh 30.02 in1016.6 mb 0.00 in0.0 mm 0.00 in0.0 mm 0.07 in1.8 mm
11:40 AM 43.5°F6.4°C 39.9°F4.4°C 87% 3.0 mph NE4.8 kmh NE 11.0 mph17.7 kmh 30.01 in1016.3 mb 0.00 in0.0 mm 0.00 in0.0 mm 0.07 in1.8 mm
12:00 PM 43.6°F6.4°C 40.0°F4.4°C 87% Calm Calm -- 30.01 in1016.3 mb 0.00 in0.0 mm 0.00 in0.0 mm 0.07 in1.8 mm
12:10 PM 44.5°F6.9°C 41.2°F5.1°C 88% Calm Calm -- 30.01 in1016.3 mb 0.00 in0.0 mm 0.00 in0.0 mm 0.07 in1.8 mm
12:30 PM 44.9°F7.2°C 40.4°F4.7°C 84% Calm Calm -- 30.01 in1016.3 mb 0.00 in0.0 mm 0.00 in0.0 mm 0.07 in1.8 mm
12:40 PM 44.7°F7.1°C 39.9°F4.4°C 83% Calm Calm -- 30.01 in1016.3 mb 0.00 in0.0 mm 0.00 in0.0 mm 0.07 in1.8 mm
01:00 PM 45.0°F7.2°C 40.5°F4.7°C 84% 6.0 mph SW9.7 kmh SW 6.0 mph9.7 kmh 30.01 in1016.3 mb 0.00 in0.0 mm 0.00 in0.0 mm 0.07 in1.8 mm
01:10 PM 43.6°F6.4°C 38.2°F3.4°C 81% Calm Calm 16.0 mph25.7 kmh 30.01 in1016.3 mb 0.00 in0.0 mm 0.00 in0.0 mm 0.07 in1.8 mm
01:30 PM 43.0°F6.1°C 38.8°F3.8°C 85% 3.0 mph SW4.8 kmh SW 7.0 mph11.3 kmh 30.02 in1016.6 mb 0.00 in0.0 mm 0.00 in0.0 mm 0.07 in1.8 mm
01:40 PM 43.7°F6.5°C 39.8°F4.3°C 86% Calm Calm 10.0 mph16.1 kmh 30.01 in1016.3 mb 0.00 in0.0 mm 0.00 in0.0 mm 0.07 in1.8 mm
02:00 PM 45.8°F7.7°C 40.6°F4.8°C 82% 6.0 mph WSW9.7 kmh WSW 6.0 mph9.7 kmh 30.01 in1016.3 mb 0.00 in0.0 mm 0.00 in0.0 mm 0.07 in1.8 mm
02:10 PM 45.9°F7.7°C 40.4°F4.7°C 81% Calm Calm 9.0 mph14.5 kmh 30.01 in1016.3 mb 0.00 in0.0 mm 0.00 in0.0 mm 0.07 in1.8 mm
02:30 PM 45.9°F7.7°C 40.1°F4.5°C 80% Calm Calm -- 30.01 in1016.3 mb 0.00 in0.0 mm 0.00 in0.0 mm 0.07 in1.8 mm
02:40 PM 45.5°F7.5°C 39.4°F4.1°C 79% 4.0 mph SW6.4 kmh SW 10.0 mph16.1 kmh 30.01 in1016.3 mb 0.01 in0.3 mm 0.06 in1.5 mm 0.08 in2.0 mm
03:00 PM 44.0°F6.7°C 40.4°F4.7°C 87% Calm Calm -- 30.00 in1015.9 mb 0.02 in0.5 mm 0.02 in0.5 mm 0.09 in2.3 mm
03:10 PM 43.1°F6.2°C 39.2°F4.0°C 86% 2.0 mph ENE3.2 kmh ENE 11.0 mph17.7 kmh 30.01 in1016.3 mb 0.02 in0.5 mm 0.00 in0.0 mm 0.09 in2.3 mm
03:30 PM 41.8°F5.4°C 37.9°F3.3°C 86% Calm Calm -- 30.00 in1015.9 mb 0.02 in0.5 mm 0.00 in0.0 mm 0.09 in2.3 mm
03:40 PM 41.5°F5.3°C 37.6°F3.1°C 86% Calm Calm -- 30.00 in1015.9 mb 0.02 in0.5 mm 0.00 in0.0 mm 0.09 in2.3 mm
04:00 PM 41.2°F5.1°C 37.9°F3.3°C 88% Calm Calm -- 30.00 in1015.9 mb 0.00 in0.0 mm 0.00 in0.0 mm 0.09 in2.3 mm
04:10 PM 41.2°F5.1°C 37.9°F3.3°C 88% Calm Calm -- 30.00 in1015.9 mb 0.00 in0.0 mm 0.00 in0.0 mm 0.09 in2.3 mm
04:30 PM 40.8°F4.9°C 37.8°F3.2°C 89% Calm Calm -- 30.00 in1015.9 mb 0.01 in0.3 mm 0.03 in0.8 mm 0.10 in2.5 mm
04:40 PM 40.8°F4.9°C 38.1°F3.4°C 90% Calm Calm -- 30.00 in1015.9 mb 0.01 in0.3 mm 0.00 in0.0 mm 0.10 in2.5 mm
05:00 PM 40.5°F4.7°C 37.8°F3.2°C 90% Calm Calm -- 29.99 in1015.6 mb 0.01 in0.3 mm 0.00 in0.0 mm 0.10 in2.5 mm
05:10 PM 40.4°F4.7°C 38.0°F3.3°C 91% Calm Calm -- 29.99 in1015.6 mb 0.01 in0.3 mm 0.00 in0.0 mm 0.10 in2.5 mm
05:30 PM 40.1°F4.5°C 37.7°F3.2°C 91% Calm Calm -- 29.99 in1015.6 mb 0.00 in0.0 mm 0.00 in0.0 mm 0.10 in2.5 mm
05:40 PM 40.1°F4.5°C 38.0°F3.3°C 92% Calm Calm -- 29.99 in1015.6 mb 0.00 in0.0 mm 0.00 in0.0 mm 0.10 in2.5 mm
06:00 PM 40.0°F4.4°C 37.9°F3.3°C 92% Calm Calm -- 29.99 in1015.6 mb 0.00 in0.0 mm 0.00 in0.0 mm 0.10 in2.5 mm
06:10 PM 39.9°F4.4°C 37.8°F3.2°C 92% Calm Calm -- 29.99 in1015.6 mb 0.00 in0.0 mm 0.00 in0.0 mm 0.10 in2.5 mm
06:30 PM 39.2°F4.0°C 37.1°F2.8°C 92% Calm Calm -- 29.99 in1015.6 mb 0.00 in0.0 mm 0.00 in0.0 mm 0.10 in2.5 mm
06:40 PM 39.2°F4.0°C 37.1°F2.8°C 92% Calm Calm -- 29.99 in1015.6 mb 0.00 in0.0 mm 0.00 in0.0 mm 0.10 in2.5 mm
07:00 PM 39.8°F4.3°C 38.0°F3.3°C 93% Calm Calm -- 30.00 in1015.9 mb 0.00 in0.0 mm 0.00 in0.0 mm 0.10 in2.5 mm
07:10 PM 40.2°F4.6°C 38.1°F3.4°C 92% Calm Calm 6.0 mph9.7 kmh 29.99 in1015.6 mb 0.00 in0.0 mm 0.00 in0.0 mm 0.10 in2.5 mm
07:20 PM 40.0°F4.4°C 37.9°F3.3°C 92% Calm Calm 6.0 mph9.7 kmh 29.99 in1015.6 mb 0.00 in0.0 mm 0.00 in0.0 mm 0.10 in2.5 mm
07:30 PM 39.7°F4.3°C 37.6°F3.1°C 92% Calm Calm -- 29.99 in1015.6 mb 0.00 in0.0 mm 0.00 in0.0 mm 0.10 in2.5 mm
08:30 PM 40.1°F4.5°C 38.0°F3.3°C 92% Calm Calm -- 29.99 in1015.6 mb 0.00 in0.0 mm 0.00 in0.0 mm 0.10 in2.5 mm
08:40 PM 39.9°F4.4°C 37.8°F3.2°C 92% Calm Calm 4.0 mph6.4 kmh 29.98 in1015.2 mb 0.00 in0.0 mm 0.00 in0.0 mm 0.10 in2.5 mm
09:00 PM 39.7°F4.3°C 37.3°F2.9°C 91% Calm Calm -- 29.98 in1015.2 mb 0.00 in0.0 mm 0.00 in0.0 mm 0.10 in2.5 mm
09:10 PM 39.6°F4.2°C 37.2°F2.9°C 91% Calm Calm 5.0 mph8.0 kmh 29.98 in1015.2 mb 0.00 in0.0 mm 0.00 in0.0 mm 0.10 in2.5 mm
09:30 PM 39.4°F4.1°C 37.3°F2.9°C 92% Calm Calm -- 29.98 in1015.2 mb 0.00 in0.0 mm 0.00 in0.0 mm 0.10 in2.5 mm
09:40 PM 39.4°F4.1°C 37.3°F2.9°C 92% Calm Calm -- 29.98 in1015.2 mb 0.00 in0.0 mm 0.00 in0.0 mm 0.10 in2.5 mm
10:00 PM 39.2°F4.0°C 37.1°F2.8°C 92% Calm Calm -- 29.98 in1015.2 mb 0.00 in0.0 mm 0.00 in0.0 mm 0.10 in2.5 mm
10:10 PM 39.3°F4.1°C 37.2°F2.9°C 92% Calm Calm -- 29.98 in1015.2 mb 0.00 in0.0 mm 0.00 in0.0 mm 0.10 in2.5 mm
10:30 PM 38.5°F3.6°C 36.4°F2.4°C 92% Calm Calm -- 29.98 in1015.2 mb 0.00 in0.0 mm 0.00 in0.0 mm 0.10 in2.5 mm
10:40 PM 38.7°F3.7°C 36.6°F2.6°C 92% Calm Calm -- 29.98 in1015.2 mb 0.00 in0.0 mm 0.00 in0.0 mm 0.10 in2.5 mm
11:00 PM 39.0°F3.9°C 37.2°F2.9°C 93% Calm Calm -- 29.98 in1015.2 mb 0.00 in0.0 mm 0.00 in0.0 mm 0.10 in2.5 mm
11:10 PM 39.2°F4.0°C 37.4°F3.0°C 93% Calm Calm -- 29.97 in1014.9 mb 0.00 in0.0 mm 0.00 in0.0 mm 0.10 in2.5 mm
11:30 PM 39.2°F4.0°C 37.1°F2.8°C 92% Calm Calm -- 29.97 in1014.9 mb 0.00 in0.0 mm 0.00 in0.0 mm 0.10 in2.5 mm
11:40 PM 39.5°F4.2°C 37.4°F3.0°C 92% Calm Calm 7.0 mph11.3 kmh 29.97 in1014.9 mb 0.00 in0.0 mm 0.00 in0.0 mm 0.10 in2.5 mm